sensor_id;sensor_type;location;lat;lon;timestamp;temperature;humidity
7077;DHT22;3579;48.956;9.154;2022-07-29T00:00:09;28.40;44.70
7077;DHT22;3579;48.956;9.154;2022-07-29T00:02:35;28.40;44.70
7077;DHT22;3579;48.956;9.154;2022-07-29T00:05:01;28.30;44.70
7077;DHT22;3579;48.956;9.154;2022-07-29T00:07:27;28.30;44.80
7077;DHT22;3579;48.956;9.154;2022-07-29T00:09:53;28.30;44.80
7077;DHT22;3579;48.956;9.154;2022-07-29T00:12:21;28.30;44.80
7077;DHT22;3579;48.956;9.154;2022-07-29T00:14:47;28.30;44.80
7077;DHT22;3579;48.956;9.154;2022-07-29T00:17:13;28.30;44.90
7077;DHT22;3579;48.956;9.154;2022-07-29T00:19:39;28.30;45.50
7077;DHT22;3579;48.956;9.154;2022-07-29T00:22:04;28.20;44.90
7077;DHT22;3579;48.956;9.154;2022-07-29T00:24:30;28.20;44.90
7077;DHT22;3579;48.956;9.154;2022-07-29T00:26:56;28.20;44.90
7077;DHT22;3579;48.956;9.154;2022-07-29T00:29:22;28.20;44.90
7077;DHT22;3579;48.956;9.154;2022-07-29T00:31:49;28.20;44.90
7077;DHT22;3579;48.956;9.154;2022-07-29T00:34:15;28.20;45.00
7077;DHT22;3579;48.956;9.154;2022-07-29T00:36:59;28.20;45.00
7077;DHT22;3579;48.956;9.154;2022-07-29T00:39:25;28.20;45.10
7077;DHT22;3579;48.956;9.154;2022-07-29T00:41:51;28.20;45.10
7077;DHT22;3579;48.956;9.154;2022-07-29T00:44:17;28.20;45.10
7077;DHT22;3579;48.956;9.154;2022-07-29T00:46:43;28.20;45.20
7077;DHT22;3579;48.956;9.154;2022-07-29T00:49:09;28.20;45.20
7077;DHT22;3579;48.956;9.154;2022-07-29T00:51:36;28.10;45.80
7077;DHT22;3579;48.956;9.154;2022-07-29T00:54:03;28.20;45.30
7077;DHT22;3579;48.956;9.154;2022-07-29T00:56:33;28.20;45.20
7077;DHT22;3579;48.956;9.154;2022-07-29T00:58:59;28.10;45.20
7077;DHT22;3579;48.956;9.154;2022-07-29T01:01:26;28.10;45.30
7077;DHT22;3579;48.956;9.154;2022-07-29T01:03:52;28.10;45.30
7077;DHT22;3579;48.956;9.154;2022-07-29T01:06:19;28.10;45.40
7077;DHT22;3579;48.956;9.154;2022-07-29T01:08:47;28.10;45.30
7077;DHT22;3579;48.956;9.154;2022-07-29T01:11:14;28.10;45.40
7077;DHT22;3579;48.956;9.154;2022-07-29T01:13:42;28.10;45.40
7077;DHT22;3579;48.956;9.154;2022-07-29T01:16:27;28.10;45.40
7077;DHT22;3579;48.956;9.154;2022-07-29T01:19:00;28.10;45.40
7077;DHT22;3579;48.956;9.154;2022-07-29T01:21:43;28.10;45.50
7077;DHT22;3579;48.956;9.154;2022-07-29T01:29:54;28.00;45.50
7077;DHT22;3579;48.956;9.154;2022-07-29T01:32:26;28.00;45.50
7077;DHT22;3579;48.956;9.154;2022-07-29T01:35:05;28.00;45.50
7077;DHT22;3579;48.956;9.154;2022-07-29T01:40:51;28.00;45.60
7077;DHT22;3579;48.956;9.154;2022-07-29T01:43:34;28.00;45.70
7077;DHT22;3579;48.956;9.154;2022-07-29T01:46:05;28.00;45.70
7077;DHT22;3579;48.956;9.154;2022-07-29T01:48:40;28.00;45.70
7077;DHT22;3579;48.956;9.154;2022-07-29T01:51:32;28.00;45.80
7077;DHT22;3579;48.956;9.154;2022-07-29T01:54:06;28.00;45.80
7077;DHT22;3579;48.956;9.154;2022-07-29T01:56:35;28.00;45.80
7077;DHT22;3579;48.956;9.154;2022-07-29T01:59:03;28.00;45.70
7077;DHT22;3579;48.956;9.154;2022-07-29T02:01:32;28.00;45.80
7077;DHT22;3579;48.956;9.154;2022-07-29T02:04:02;28.00;45.80
7077;DHT22;3579;48.956;9.154;2022-07-29T02:06:29;28.00;45.80
7077;DHT22;3579;48.956;9.154;2022-07-29T02:08:57;27.90;45.80
7077;DHT22;3579;48.956;9.154;2022-07-29T02:11:24;27.90;45.90
7077;DHT22;3579;48.956;9.154;2022-07-29T02:13:52;27.90;45.80
7077;DHT22;3579;48.956;9.154;2022-07-29T02:16:21;27.90;45.90
7077;DHT22;3579;48.956;9.154;2022-07-29T02:18:51;27.90;45.90
7077;DHT22;3579;48.956;9.154;2022-07-29T02:21:23;27.90;46.00
7077;DHT22;3579;48.956;9.154;2022-07-29T02:23:51;27.90;46.00
7077;DHT22;3579;48.956;9.154;2022-07-29T02:26:23;27.90;46.00
7077;DHT22;3579;48.956;9.154;2022-07-29T02:28:52;27.90;46.10
7077;DHT22;3579;48.956;9.154;2022-07-29T02:31:22;27.90;46.00
7077;DHT22;3579;48.956;9.154;2022-07-29T02:33:50;27.90;46.10
7077;DHT22;3579;48.956;9.154;2022-07-29T02:36:17;27.90;46.00
7077;DHT22;3579;48.956;9.154;2022-07-29T02:38:45;27.90;46.10
7077;DHT22;3579;48.956;9.154;2022-07-29T02:41:22;27.90;46.20
7077;DHT22;3579;48.956;9.154;2022-07-29T02:43:55;27.90;46.10
7077;DHT22;3579;48.956;9.154;2022-07-29T02:46:29;27.80;46.10
7077;DHT22;3579;48.956;9.154;2022-07-29T02:51:53;27.80;46.10
7077;DHT22;3579;48.956;9.154;2022-07-29T02:54:45;27.80;46.10
7077;DHT22;3579;48.956;9.154;2022-07-29T02:57:20;27.80;46.10
7077;DHT22;3579;48.956;9.154;2022-07-29T02:59:49;27.80;46.20
7077;DHT22;3579;48.956;9.154;2022-07-29T03:02:17;27.80;46.20
7077;DHT22;3579;48.956;9.154;2022-07-29T03:04:44;27.80;46.30
7077;DHT22;3579;48.956;9.154;2022-07-29T03:07:13;27.80;46.30
7077;DHT22;3579;48.956;9.154;2022-07-29T03:09:41;27.80;46.30
7077;DHT22;3579;48.956;9.154;2022-07-29T03:12:08;27.80;46.80
7077;DHT22;3579;48.956;9.154;2022-07-29T03:14:35;27.70;46.30
7077;DHT22;3579;48.956;9.154;2022-07-29T03:17:02;27.70;46.30
7077;DHT22;3579;48.956;9.154;2022-07-29T03:19:28;27.70;46.40
7077;DHT22;3579;48.956;9.154;2022-07-29T03:21:58;27.70;46.40
7077;DHT22;3579;48.956;9.154;2022-07-29T03:24:25;27.70;46.40
7077;DHT22;3579;48.956;9.154;2022-07-29T03:26:51;27.70;46.40
7077;DHT22;3579;48.956;9.154;2022-07-29T03:29:17;27.70;46.40
7077;DHT22;3579;48.956;9.154;2022-07-29T03:31:43;27.70;46.40
7077;DHT22;3579;48.956;9.154;2022-07-29T03:34:09;27.70;46.40
7077;DHT22;3579;48.956;9.154;2022-07-29T03:36:35;27.70;46.50
7077;DHT22;3579;48.956;9.154;2022-07-29T03:39:02;27.70;46.50
7077;DHT22;3579;48.956;9.154;2022-07-29T03:41:30;27.70;46.50
7077;DHT22;3579;48.956;9.154;2022-07-29T03:43:58;27.70;46.50
7077;DHT22;3579;48.956;9.154;2022-07-29T03:46:26;27.70;46.50
7077;DHT22;3579;48.956;9.154;2022-07-29T03:49:01;27.70;46.50
7077;DHT22;3579;48.956;9.154;2022-07-29T03:51:29;27.70;46.60
7077;DHT22;3579;48.956;9.154;2022-07-29T03:53:55;27.60;46.50
7077;DHT22;3579;48.956;9.154;2022-07-29T03:56:22;27.60;46.50
7077;DHT22;3579;48.956;9.154;2022-07-29T03:58:51;27.60;46.50
7077;DHT22;3579;48.956;9.154;2022-07-29T04:01:18;27.60;46.60
7077;DHT22;3579;48.956;9.154;2022-07-29T04:03:45;27.70;46.60
7077;DHT22;3579;48.956;9.154;2022-07-29T04:06:12;27.60;46.60
7077;DHT22;3579;48.956;9.154;2022-07-29T04:08:38;27.70;46.60
7077;DHT22;3579;48.956;9.154;2022-07-29T04:11:04;27.60;46.60
7077;DHT22;3579;48.956;9.154;2022-07-29T04:13:31;27.70;46.60
7077;DHT22;3579;48.956;9.154;2022-07-29T04:15:58;27.70;46.60
7077;DHT22;3579;48.956;9.154;2022-07-29T04:18:24;27.70;46.50
7077;DHT22;3579;48.956;9.154;2022-07-29T04:20:50;27.70;46.60
7077;DHT22;3579;48.956;9.154;2022-07-29T04:23:16;27.70;46.60
7077;DHT22;3579;48.956;9.154;2022-07-29T04:25:42;27.70;46.60
7077;DHT22;3579;48.956;9.154;2022-07-29T04:28:09;27.70;46.60
7077;DHT22;3579;48.956;9.154;2022-07-29T04:30:36;27.70;46.50
7077;DHT22;3579;48.956;9.154;2022-07-29T04:33:05;27.70;46.50
7077;DHT22;3579;48.956;9.154;2022-07-29T04:35:35;27.70;46.40
7077;DHT22;3579;48.956;9.154;2022-07-29T04:38:01;27.70;46.40
7077;DHT22;3579;48.956;9.154;2022-07-29T04:40:28;27.70;46.60
7077;DHT22;3579;48.956;9.154;2022-07-29T04:42:54;27.70;46.50
7077;DHT22;3579;48.956;9.154;2022-07-29T04:45:20;27.70;46.50
7077;DHT22;3579;48.956;9.154;2022-07-29T04:47:47;27.70;46.50
7077;DHT22;3579;48.956;9.154;2022-07-29T04:50:13;27.70;46.50
7077;DHT22;3579;48.956;9.154;2022-07-29T04:52:39;27.70;46.50
7077;DHT22;3579;48.956;9.154;2022-07-29T04:55:05;27.70;46.60
7077;DHT22;3579;48.956;9.154;2022-07-29T04:57:31;27.70;46.60
7077;DHT22;3579;48.956;9.154;2022-07-29T04:59:57;27.70;46.60
7077;DHT22;3579;48.956;9.154;2022-07-29T05:02:23;27.70;46.60
7077;DHT22;3579;48.956;9.154;2022-07-29T05:04:49;27.70;46.60
7077;DHT22;3579;48.956;9.154;2022-07-29T05:07:15;27.80;46.70
7077;DHT22;3579;48.956;9.154;2022-07-29T05:09:41;27.70;46.60
7077;DHT22;3579;48.956;9.154;2022-07-29T05:12:07;27.80;46.70
7077;DHT22;3579;48.956;9.154;2022-07-29T05:14:33;27.80;46.70
7077;DHT22;3579;48.956;9.154;2022-07-29T05:16:59;27.90;46.60
7077;DHT22;3579;48.956;9.154;2022-07-29T05:19:26;27.90;46.60
7077;DHT22;3579;48.956;9.154;2022-07-29T05:21:52;27.90;46.60
7077;DHT22;3579;48.956;9.154;2022-07-29T05:24:18;28.00;46.60
7077;DHT22;3579;48.956;9.154;2022-07-29T05:26:44;27.90;46.50
7077;DHT22;3579;48.956;9.154;2022-07-29T05:29:10;28.00;46.60
7077;DHT22;3579;48.956;9.154;2022-07-29T05:31:36;28.00;46.60
7077;DHT22;3579;48.956;9.154;2022-07-29T05:34:02;28.00;46.60
7077;DHT22;3579;48.956;9.154;2022-07-29T05:36:28;28.00;46.60
7077;DHT22;3579;48.956;9.154;2022-07-29T05:38:54;28.00;46.80
7077;DHT22;3579;48.956;9.154;2022-07-29T05:41:20;28.00;46.90
7077;DHT22;3579;48.956;9.154;2022-07-29T05:43:47;28.00;47.10
7077;DHT22;3579;48.956;9.154;2022-07-29T05:46:12;28.00;47.20
7077;DHT22;3579;48.956;9.154;2022-07-29T05:48:39;28.00;47.30
7077;DHT22;3579;48.956;9.154;2022-07-29T05:51:05;27.90;50.50
7077;DHT22;3579;48.956;9.154;2022-07-29T05:53:31;27.40;53.60
7077;DHT22;3579;48.956;9.154;2022-07-29T05:55:57;26.90;55.30
7077;DHT22;3579;48.956;9.154;2022-07-29T05:58:23;26.60;56.00
7077;DHT22;3579;48.956;9.154;2022-07-29T06:00:49;26.40;57.10
7077;DHT22;3579;48.956;9.154;2022-07-29T06:03:15;26.20;57.60
7077;DHT22;3579;48.956;9.154;2022-07-29T06:05:41;25.90;58.40
7077;DHT22;3579;48.956;9.154;2022-07-29T06:08:07;25.90;58.80
7077;DHT22;3579;48.956;9.154;2022-07-29T06:10:35;25.60;59.50
7077;DHT22;3579;48.956;9.154;2022-07-29T06:13:01;25.50;60.50
7077;DHT22;3579;48.956;9.154;2022-07-29T06:15:27;25.40;60.70
7077;DHT22;3579;48.956;9.154;2022-07-29T06:17:53;25.30;61.00
7077;DHT22;3579;48.956;9.154;2022-07-29T06:20:20;25.30;61.60
7077;DHT22;3579;48.956;9.154;2022-07-29T06:22:46;25.10;62.40
7077;DHT22;3579;48.956;9.154;2022-07-29T06:25:12;25.00;62.50
7077;DHT22;3579;48.956;9.154;2022-07-29T06:27:38;25.10;62.40
7077;DHT22;3579;48.956;9.154;2022-07-29T06:30:05;25.10;62.70
7077;DHT22;3579;48.956;9.154;2022-07-29T06:32:33;25.10;63.00
7077;DHT22;3579;48.956;9.154;2022-07-29T06:35:01;25.10;62.90
7077;DHT22;3579;48.956;9.154;2022-07-29T06:37:27;25.00;63.70
7077;DHT22;3579;48.956;9.154;2022-07-29T06:39:53;25.00;63.00
7077;DHT22;3579;48.956;9.154;2022-07-29T06:42:42;25.00;63.40
7077;DHT22;3579;48.956;9.154;2022-07-29T06:45:09;25.00;63.50
7077;DHT22;3579;48.956;9.154;2022-07-29T06:47:36;25.20;63.00
7077;DHT22;3579;48.956;9.154;2022-07-29T06:50:03;25.20;63.30
7077;DHT22;3579;48.956;9.154;2022-07-29T06:52:29;25.10;63.20
7077;DHT22;3579;48.956;9.154;2022-07-29T06:54:55;25.20;63.40
7077;DHT22;3579;48.956;9.154;2022-07-29T06:57:21;25.10;63.50
7077;DHT22;3579;48.956;9.154;2022-07-29T06:59:48;25.10;63.60
7077;DHT22;3579;48.956;9.154;2022-07-29T07:02:14;24.90;64.10
7077;DHT22;3579;48.956;9.154;2022-07-29T07:04:41;25.00;64.10
7077;DHT22;3579;48.956;9.154;2022-07-29T07:07:08;24.90;63.60
7077;DHT22;3579;48.956;9.154;2022-07-29T07:09:33;24.90;63.50
7077;DHT22;3579;48.956;9.154;2022-07-29T07:11:59;25.00;63.70
7077;DHT22;3579;48.956;9.154;2022-07-29T07:14:25;25.10;63.90
7077;DHT22;3579;48.956;9.154;2022-07-29T07:16:53;25.10;63.40
7077;DHT22;3579;48.956;9.154;2022-07-29T07:19:19;25.10;64.20
7077;DHT22;3579;48.956;9.154;2022-07-29T07:21:45;25.10;63.00
7077;DHT22;3579;48.956;9.154;2022-07-29T07:24:11;25.30;63.20
7077;DHT22;3579;48.956;9.154;2022-07-29T07:26:38;25.50;62.60
7077;DHT22;3579;48.956;9.154;2022-07-29T07:29:06;25.70;61.90
7077;DHT22;3579;48.956;9.154;2022-07-29T07:31:32;25.70;61.70
7077;DHT22;3579;48.956;9.154;2022-07-29T07:33:58;25.70;61.40
7077;DHT22;3579;48.956;9.154;2022-07-29T07:36:24;25.70;61.90
7077;DHT22;3579;48.956;9.154;2022-07-29T07:38:51;25.80;61.70
7077;DHT22;3579;48.956;9.154;2022-07-29T07:41:17;25.90;61.40
7077;DHT22;3579;48.956;9.154;2022-07-29T07:43:44;25.70;62.30
7077;DHT22;3579;48.956;9.154;2022-07-29T07:46:10;25.90;61.60
7077;DHT22;3579;48.956;9.154;2022-07-29T07:48:37;26.10;61.40
7077;DHT22;3579;48.956;9.154;2022-07-29T07:51:03;26.10;61.50
7077;DHT22;3579;48.956;9.154;2022-07-29T07:53:30;26.00;62.00
7077;DHT22;3579;48.956;9.154;2022-07-29T07:55:56;25.90;61.50
7077;DHT22;3579;48.956;9.154;2022-07-29T07:58:22;25.60;62.30
7077;DHT22;3579;48.956;9.154;2022-07-29T08:00:49;25.80;61.20
7077;DHT22;3579;48.956;9.154;2022-07-29T08:03:15;25.90;60.30
7077;DHT22;3579;48.956;9.154;2022-07-29T08:05:41;26.00;59.70
7077;DHT22;3579;48.956;9.154;2022-07-29T08:08:07;26.00;60.40
7077;DHT22;3579;48.956;9.154;2022-07-29T08:10:34;26.00;60.30
7077;DHT22;3579;48.956;9.154;2022-07-29T08:13:20;26.00;60.50
7077;DHT22;3579;48.956;9.154;2022-07-29T08:15:46;26.00;60.30
7077;DHT22;3579;48.956;9.154;2022-07-29T08:18:13;26.10;59.40
7077;DHT22;3579;48.956;9.154;2022-07-29T08:20:40;26.30;59.00
7077;DHT22;3579;48.956;9.154;2022-07-29T08:23:07;26.40;58.90
7077;DHT22;3579;48.956;9.154;2022-07-29T08:25:37;26.40;58.70
7077;DHT22;3579;48.956;9.154;2022-07-29T08:28:07;26.40;58.70
7077;DHT22;3579;48.956;9.154;2022-07-29T08:30:34;26.50;58.80
7077;DHT22;3579;48.956;9.154;2022-07-29T08:33:00;26.60;58.80
7077;DHT22;3579;48.956;9.154;2022-07-29T08:35:27;26.70;58.70
7077;DHT22;3579;48.956;9.154;2022-07-29T08:37:53;26.60;58.40
7077;DHT22;3579;48.956;9.154;2022-07-29T08:40:20;26.40;58.80
7077;DHT22;3579;48.956;9.154;2022-07-29T08:42:46;26.40;59.10
7077;DHT22;3579;48.956;9.154;2022-07-29T08:45:12;26.50;58.70
7077;DHT22;3579;48.956;9.154;2022-07-29T08:47:39;26.50;58.80
7077;DHT22;3579;48.956;9.154;2022-07-29T08:50:07;26.60;58.40
7077;DHT22;3579;48.956;9.154;2022-07-29T08:52:36;26.80;58.30
7077;DHT22;3579;48.956;9.154;2022-07-29T08:55:04;26.70;58.20
7077;DHT22;3579;48.956;9.154;2022-07-29T08:57:31;26.70;57.10
7077;DHT22;3579;48.956;9.154;2022-07-29T09:00:00;26.50;57.20
7077;DHT22;3579;48.956;9.154;2022-07-29T09:02:29;26.70;56.30
7077;DHT22;3579;48.956;9.154;2022-07-29T09:04:57;26.80;56.00
7077;DHT22;3579;48.956;9.154;2022-07-29T09:07:25;27.00;55.40
7077;DHT22;3579;48.956;9.154;2022-07-29T09:09:51;27.10;55.60
7077;DHT22;3579;48.956;9.154;2022-07-29T09:12:18;27.20;55.30
7077;DHT22;3579;48.956;9.154;2022-07-29T09:14:44;27.30;55.00
7077;DHT22;3579;48.956;9.154;2022-07-29T09:17:10;27.10;54.50
7077;DHT22;3579;48.956;9.154;2022-07-29T09:19:37;27.00;55.30
7077;DHT22;3579;48.956;9.154;2022-07-29T09:22:05;27.20;55.10
7077;DHT22;3579;48.956;9.154;2022-07-29T09:24:43;27.40;55.10
7077;DHT22;3579;48.956;9.154;2022-07-29T09:27:22;27.20;55.40
7077;DHT22;3579;48.956;9.154;2022-07-29T09:30:07;27.00;55.30
7077;DHT22;3579;48.956;9.154;2022-07-29T09:32:59;27.00;55.00
7077;DHT22;3579;48.956;9.154;2022-07-29T09:35:29;27.00;55.00
7077;DHT22;3579;48.956;9.154;2022-07-29T09:37:56;27.20;54.80
7077;DHT22;3579;48.956;9.154;2022-07-29T09:40:25;27.20;54.80
7077;DHT22;3579;48.956;9.154;2022-07-29T09:42:52;27.30;54.70
7077;DHT22;3579;48.956;9.154;2022-07-29T09:45:31;27.40;54.70
7077;DHT22;3579;48.956;9.154;2022-07-29T09:47:59;27.40;54.50
7077;DHT22;3579;48.956;9.154;2022-07-29T09:50:42;27.50;54.50
7077;DHT22;3579;48.956;9.154;2022-07-29T09:53:10;27.60;55.00
7077;DHT22;3579;48.956;9.154;2022-07-29T09:55:49;27.60;54.20
7077;DHT22;3579;48.956;9.154;2022-07-29T09:58:21;27.70;54.30
7077;DHT22;3579;48.956;9.154;2022-07-29T10:00:48;27.70;54.30
7077;DHT22;3579;48.956;9.154;2022-07-29T10:03:16;27.70;54.10
7077;DHT22;3579;48.956;9.154;2022-07-29T10:05:43;27.80;54.10
7077;DHT22;3579;48.956;9.154;2022-07-29T10:08:10;27.80;54.00
7077;DHT22;3579;48.956;9.154;2022-07-29T10:10:40;27.80;54.20
7077;DHT22;3579;48.956;9.154;2022-07-29T10:13:13;27.90;54.20
7077;DHT22;3579;48.956;9.154;2022-07-29T10:15:44;27.90;54.10
7077;DHT22;3579;48.956;9.154;2022-07-29T10:18:13;27.90;54.10
7077;DHT22;3579;48.956;9.154;2022-07-29T10:20:41;28.00;54.10
7077;DHT22;3579;48.956;9.154;2022-07-29T10:23:09;28.00;54.10
7077;DHT22;3579;48.956;9.154;2022-07-29T10:25:35;28.00;54.00
7077;DHT22;3579;48.956;9.154;2022-07-29T10:28:01;28.00;54.00
7077;DHT22;3579;48.956;9.154;2022-07-29T10:30:28;28.10;53.90
7077;DHT22;3579;48.956;9.154;2022-07-29T10:32:57;28.10;53.90
7077;DHT22;3579;48.956;9.154;2022-07-29T10:44:04;28.20;54.00
7077;DHT22;3579;48.956;9.154;2022-07-29T10:46:38;28.30;53.90
7077;DHT22;3579;48.956;9.154;2022-07-29T10:49:25;28.30;53.40
7077;DHT22;3579;48.956;9.154;2022-07-29T10:52:09;28.30;52.50
7077;DHT22;3579;48.956;9.154;2022-07-29T10:57:24;28.50;52.30
7077;DHT22;3579;48.956;9.154;2022-07-29T11:05:14;28.30;52.80
7077;DHT22;3579;48.956;9.154;2022-07-29T11:10:40;28.40;52.90
7077;DHT22;3579;48.956;9.154;2022-07-29T11:13:07;28.40;52.90
7077;DHT22;3579;48.956;9.154;2022-07-29T11:15:53;28.40;52.90
7077;DHT22;3579;48.956;9.154;2022-07-29T11:18:20;28.40;52.90
7077;DHT22;3579;48.956;9.154;2022-07-29T11:20:48;28.40;53.00
7077;DHT22;3579;48.956;9.154;2022-07-29T11:23:33;28.50;52.70
7077;DHT22;3579;48.956;9.154;2022-07-29T11:26:17;28.50;52.70
7077;DHT22;3579;48.956;9.154;2022-07-29T11:28:51;28.50;52.80
7077;DHT22;3579;48.956;9.154;2022-07-29T11:31:37;28.50;52.90
7077;DHT22;3579;48.956;9.154;2022-07-29T11:34:16;28.50;52.90
7077;DHT22;3579;48.956;9.154;2022-07-29T11:39:42;28.70;52.40
7077;DHT22;3579;48.956;9.154;2022-07-29T11:45:03;28.70;53.00
7077;DHT22;3579;48.956;9.154;2022-07-29T11:47:33;28.60;53.00
7077;DHT22;3579;48.956;9.154;2022-07-29T11:50:01;28.70;52.90
7077;DHT22;3579;48.956;9.154;2022-07-29T11:52:45;28.70;52.90
7077;DHT22;3579;48.956;9.154;2022-07-29T11:55:16;28.70;53.00
7077;DHT22;3579;48.956;9.154;2022-07-29T12:02:47;28.90;52.60
7077;DHT22;3579;48.956;9.154;2022-07-29T12:05:14;28.90;52.90
7077;DHT22;3579;48.956;9.154;2022-07-29T12:07:40;28.90;52.50
7077;DHT22;3579;48.956;9.154;2022-07-29T12:10:08;28.90;52.80
7077;DHT22;3579;48.956;9.154;2022-07-29T12:12:35;28.90;52.70
7077;DHT22;3579;48.956;9.154;2022-07-29T12:15:20;28.90;52.40
7077;DHT22;3579;48.956;9.154;2022-07-29T12:17:52;29.00;52.60
7077;DHT22;3579;48.956;9.154;2022-07-29T12:20:29;29.00;52.70
7077;DHT22;3579;48.956;9.154;2022-07-29T12:22:57;29.10;52.50
7077;DHT22;3579;48.956;9.154;2022-07-29T12:25:24;29.10;52.20
7077;DHT22;3579;48.956;9.154;2022-07-29T12:28:03;29.10;52.40
7077;DHT22;3579;48.956;9.154;2022-07-29T12:30:40;29.10;52.40
7077;DHT22;3579;48.956;9.154;2022-07-29T12:33:20;29.10;52.40
7077;DHT22;3579;48.956;9.154;2022-07-29T12:35:56;29.20;52.40
7077;DHT22;3579;48.956;9.154;2022-07-29T12:38:27;29.20;52.40
7077;DHT22;3579;48.956;9.154;2022-07-29T12:40:58;29.20;52.40
7077;DHT22;3579;48.956;9.154;2022-07-29T12:43:29;29.20;52.60
7077;DHT22;3579;48.956;9.154;2022-07-29T12:45:57;29.20;50.90
7077;DHT22;3579;48.956;9.154;2022-07-29T12:48:39;29.20;50.10
7077;DHT22;3579;48.956;9.154;2022-07-29T12:51:07;29.10;49.50
7077;DHT22;3579;48.956;9.154;2022-07-29T12:53:36;29.20;49.50
7077;DHT22;3579;48.956;9.154;2022-07-29T12:56:05;29.20;49.50
7077;DHT22;3579;48.956;9.154;2022-07-29T12:58:40;29.20;49.60
7077;DHT22;3579;48.956;9.154;2022-07-29T13:01:14;29.20;49.10
7077;DHT22;3579;48.956;9.154;2022-07-29T13:03:53;29.10;49.40
7077;DHT22;3579;48.956;9.154;2022-07-29T13:06:35;29.10;49.50
7077;DHT22;3579;48.956;9.154;2022-07-29T13:09:14;29.20;49.60
7077;DHT22;3579;48.956;9.154;2022-07-29T13:12:05;29.20;49.90
7077;DHT22;3579;48.956;9.154;2022-07-29T13:14:33;29.20;50.50
7077;DHT22;3579;48.956;9.154;2022-07-29T13:22:11;29.10;50.90
7077;DHT22;3579;48.956;9.154;2022-07-29T13:27:28;29.10;50.60
7077;DHT22;3579;48.956;9.154;2022-07-29T13:29:57;29.10;50.30
7077;DHT22;3579;48.956;9.154;2022-07-29T13:32:24;29.10;50.20
7077;DHT22;3579;48.956;9.154;2022-07-29T13:34:51;29.10;50.10
7077;DHT22;3579;48.956;9.154;2022-07-29T13:37:17;29.10;50.10
7077;DHT22;3579;48.956;9.154;2022-07-29T13:39:44;29.10;50.00
7077;DHT22;3579;48.956;9.154;2022-07-29T13:42:10;29.00;49.60
7077;DHT22;3579;48.956;9.154;2022-07-29T13:44:39;28.90;49.60
7077;DHT22;3579;48.956;9.154;2022-07-29T13:47:06;28.90;49.80
7077;DHT22;3579;48.956;9.154;2022-07-29T13:49:32;28.90;50.00
7077;DHT22;3579;48.956;9.154;2022-07-29T13:51:58;28.90;50.10
7077;DHT22;3579;48.956;9.154;2022-07-29T13:54:24;29.00;50.20
7077;DHT22;3579;48.956;9.154;2022-07-29T13:56:50;29.00;50.50
7077;DHT22;3579;48.956;9.154;2022-07-29T13:59:17;29.10;50.90
7077;DHT22;3579;48.956;9.154;2022-07-29T14:01:43;29.10;50.30
7077;DHT22;3579;48.956;9.154;2022-07-29T14:04:09;29.20;49.90
7077;DHT22;3579;48.956;9.154;2022-07-29T14:06:36;29.20;49.90
7077;DHT22;3579;48.956;9.154;2022-07-29T14:09:03;29.20;49.80
7077;DHT22;3579;48.956;9.154;2022-07-29T14:11:32;29.20;49.70
7077;DHT22;3579;48.956;9.154;2022-07-29T14:13:58;29.30;49.80
7077;DHT22;3579;48.956;9.154;2022-07-29T14:16:24;29.40;50.10
7077;DHT22;3579;48.956;9.154;2022-07-29T14:18:50;29.40;50.30
7077;DHT22;3579;48.956;9.154;2022-07-29T14:21:16;29.50;50.90
7077;DHT22;3579;48.956;9.154;2022-07-29T14:23:42;29.50;49.60
7077;DHT22;3579;48.956;9.154;2022-07-29T14:26:08;29.50;48.90
7077;DHT22;3579;48.956;9.154;2022-07-29T14:28:35;29.50;49.40
7077;DHT22;3579;48.956;9.154;2022-07-29T14:31:01;29.50;49.70
7077;DHT22;3579;48.956;9.154;2022-07-29T14:33:27;29.50;50.40
7077;DHT22;3579;48.956;9.154;2022-07-29T14:35:54;29.50;50.50
7077;DHT22;3579;48.956;9.154;2022-07-29T14:38:19;29.50;50.00
7077;DHT22;3579;48.956;9.154;2022-07-29T14:40:46;29.50;50.00
7077;DHT22;3579;48.956;9.154;2022-07-29T14:43:13;29.50;50.00
7077;DHT22;3579;48.956;9.154;2022-07-29T14:45:40;29.50;50.00
7077;DHT22;3579;48.956;9.154;2022-07-29T14:48:06;29.50;49.90
7077;DHT22;3579;48.956;9.154;2022-07-29T14:50:32;29.50;49.90
7077;DHT22;3579;48.956;9.154;2022-07-29T14:53:01;29.50;49.80
7077;DHT22;3579;48.956;9.154;2022-07-29T14:55:27;29.50;49.70
7077;DHT22;3579;48.956;9.154;2022-07-29T14:57:53;29.50;49.70
7077;DHT22;3579;48.956;9.154;2022-07-29T15:00:19;29.50;49.80
7077;DHT22;3579;48.956;9.154;2022-07-29T15:02:47;29.50;49.90
7077;DHT22;3579;48.956;9.154;2022-07-29T15:05:13;29.50;49.80
7077;DHT22;3579;48.956;9.154;2022-07-29T15:07:39;29.50;49.80
7077;DHT22;3579;48.956;9.154;2022-07-29T15:10:07;29.50;49.60
7077;DHT22;3579;48.956;9.154;2022-07-29T15:12:33;29.50;49.80
7077;DHT22;3579;48.956;9.154;2022-07-29T15:14:59;29.50;49.60
7077;DHT22;3579;48.956;9.154;2022-07-29T15:17:25;29.60;49.70
7077;DHT22;3579;48.956;9.154;2022-07-29T15:19:51;29.60;49.60
7077;DHT22;3579;48.956;9.154;2022-07-29T15:22:18;29.60;49.70
7077;DHT22;3579;48.956;9.154;2022-07-29T15:24:44;29.60;49.50
7077;DHT22;3579;48.956;9.154;2022-07-29T15:27:10;29.60;49.50
7077;DHT22;3579;48.956;9.154;2022-07-29T15:29:43;29.60;49.50
7077;DHT22;3579;48.956;9.154;2022-07-29T15:32:09;29.60;49.50
7077;DHT22;3579;48.956;9.154;2022-07-29T15:34:36;29.60;49.40
7077;DHT22;3579;48.956;9.154;2022-07-29T15:37:03;29.60;49.40
7077;DHT22;3579;48.956;9.154;2022-07-29T15:39:30;29.60;49.30
7077;DHT22;3579;48.956;9.154;2022-07-29T15:41:58;29.60;49.30
7077;DHT22;3579;48.956;9.154;2022-07-29T15:44:27;29.60;49.30
7077;DHT22;3579;48.956;9.154;2022-07-29T15:46:53;29.60;49.10
7077;DHT22;3579;48.956;9.154;2022-07-29T15:51:59;29.60;49.30
7077;DHT22;3579;48.956;9.154;2022-07-29T15:54:26;29.60;49.10
7077;DHT22;3579;48.956;9.154;2022-07-29T15:56:53;29.60;49.10
7077;DHT22;3579;48.956;9.154;2022-07-29T15:59:20;29.60;48.90
7077;DHT22;3579;48.956;9.154;2022-07-29T16:01:46;29.60;49.00
7077;DHT22;3579;48.956;9.154;2022-07-29T16:04:12;29.60;48.80
7077;DHT22;3579;48.956;9.154;2022-07-29T16:06:38;29.70;48.90
7077;DHT22;3579;48.956;9.154;2022-07-29T16:09:04;29.70;48.90
7077;DHT22;3579;48.956;9.154;2022-07-29T16:11:30;29.70;48.80
7077;DHT22;3579;48.956;9.154;2022-07-29T16:13:57;29.70;48.60
7077;DHT22;3579;48.956;9.154;2022-07-29T16:16:24;29.70;49.10
7077;DHT22;3579;48.956;9.154;2022-07-29T16:18:50;29.70;48.50
7077;DHT22;3579;48.956;9.154;2022-07-29T16:21:16;29.70;48.70
7077;DHT22;3579;48.956;9.154;2022-07-29T16:23:42;29.70;48.40
7077;DHT22;3579;48.956;9.154;2022-07-29T16:26:11;29.70;48.30
7077;DHT22;3579;48.956;9.154;2022-07-29T16:28:37;29.70;48.50
7077;DHT22;3579;48.956;9.154;2022-07-29T16:31:03;29.70;48.40
7077;DHT22;3579;48.956;9.154;2022-07-29T16:33:29;29.70;48.30
7077;DHT22;3579;48.956;9.154;2022-07-29T16:35:55;29.70;48.30
7077;DHT22;3579;48.956;9.154;2022-07-29T16:38:21;29.70;48.80
7077;DHT22;3579;48.956;9.154;2022-07-29T16:40:47;29.70;48.30
7077;DHT22;3579;48.956;9.154;2022-07-29T16:43:13;29.70;48.10
7077;DHT22;3579;48.956;9.154;2022-07-29T16:45:40;29.70;48.10
7077;DHT22;3579;48.956;9.154;2022-07-29T16:48:06;29.70;48.20
7077;DHT22;3579;48.956;9.154;2022-07-29T16:50:32;29.70;48.10
7077;DHT22;3579;48.956;9.154;2022-07-29T16:52:58;29.70;48.00
7077;DHT22;3579;48.956;9.154;2022-07-29T16:55:24;29.70;48.00
7077;DHT22;3579;48.956;9.154;2022-07-29T16:57:50;29.70;48.20
7077;DHT22;3579;48.956;9.154;2022-07-29T17:00:18;29.70;48.20
7077;DHT22;3579;48.956;9.154;2022-07-29T17:02:44;29.70;48.10